createdAt,value
2019-02-25T00:00:30.830Z,-1.57
2019-02-25T00:03:01.709Z,-1.49
2019-02-25T00:05:33.198Z,-1.45
2019-02-25T00:08:04.145Z,-1.40
2019-02-25T00:10:35.021Z,-1.44
2019-02-25T00:13:06.026Z,-1.51
2019-02-25T00:15:37.036Z,-1.55
2019-02-25T00:18:08.031Z,-1.51
2019-02-25T00:20:38.913Z,-1.45
2019-02-25T00:23:09.765Z,-1.47
2019-02-25T00:25:40.716Z,-1.49
2019-02-25T00:28:11.572Z,-1.52
2019-02-25T00:30:42.466Z,-1.47
2019-02-25T00:33:13.321Z,-1.47
2019-02-25T00:35:44.192Z,-1.50
2019-02-25T00:38:15.063Z,-1.59
2019-02-25T00:40:45.990Z,-1.68
2019-02-25T00:43:16.852Z,-1.77
2019-02-25T00:45:47.880Z,-1.89
2019-02-25T00:48:18.726Z,-1.97
2019-02-25T00:50:49.729Z,-2.01
2019-02-25T00:53:20.591Z,-2.08
2019-02-25T00:55:51.453Z,-2.18
2019-02-25T00:58:22.304Z,-2.20
2019-02-25T01:00:53.249Z,-2.28
2019-02-25T01:03:24.135Z,-2.33
2019-02-25T01:05:55.062Z,-2.32
2019-02-25T01:08:25.926Z,-2.25
2019-02-25T01:10:56.855Z,-2.23
2019-02-25T01:13:27.909Z,-2.24
2019-02-25T01:15:58.754Z,-2.21
2019-02-25T01:18:29.607Z,-2.19
2019-02-25T01:21:00.463Z,-2.25
2019-02-25T01:23:31.357Z,-2.29
2019-02-25T01:26:02.221Z,-2.32
2019-02-25T01:28:33.107Z,-2.37
2019-02-25T01:31:04.014Z,-2.41
2019-02-25T01:33:34.964Z,-2.46
2019-02-25T01:36:05.846Z,-2.51
2019-02-25T01:38:36.707Z,-2.52
2019-02-25T01:41:07.569Z,-2.53
2019-02-25T01:43:38.459Z,-2.54
2019-02-25T01:46:09.323Z,-2.48
2019-02-25T01:48:40.280Z,-2.39
2019-02-25T01:51:11.194Z,-2.39
2019-02-25T01:53:41.997Z,-2.40
2019-02-25T01:56:12.831Z,-2.43
2019-02-25T01:58:43.702Z,-2.46
2019-02-25T02:01:14.557Z,-2.45
2019-02-25T02:03:45.400Z,-2.43
2019-02-25T02:06:16.297Z,-2.44
2019-02-25T02:08:47.155Z,-2.47
2019-02-25T02:11:18.011Z,-2.48
2019-02-25T02:13:48.890Z,-2.44
2019-02-25T02:16:19.745Z,-2.41
2019-02-25T02:18:50.608Z,-2.37
2019-02-25T02:21:21.471Z,-2.36
2019-02-25T02:23:52.310Z,-2.36
2019-02-25T02:26:23.168Z,-2.36
2019-02-25T02:28:54.030Z,-2.36
2019-02-25T02:31:24.887Z,-2.33
2019-02-25T02:33:55.754Z,-2.32
2019-02-25T02:36:26.642Z,-2.31
2019-02-25T02:38:57.503Z,-2.35
2019-02-25T02:41:28.360Z,-2.42
2019-02-25T02:43:59.213Z,-2.43
2019-02-25T02:46:41.744Z,-2.46
2019-02-25T02:49:12.587Z,-2.50
2019-02-25T02:51:43.469Z,-2.49
2019-02-25T02:54:14.326Z,-2.50
2019-02-25T02:56:45.176Z,-2.53
2019-02-25T02:59:16.041Z,-2.58
2019-02-25T03:01:47.120Z,-2.56
2019-02-25T03:04:17.963Z,-2.59
2019-02-25T03:06:48.842Z,-2.65
2019-02-25T03:09:19.696Z,-2.65
2019-02-25T03:11:50.644Z,-2.70
2019-02-25T03:14:21.488Z,-2.73
2019-02-25T03:16:52.328Z,-2.73
2019-02-25T03:19:23.194Z,-2.68
2019-02-25T03:21:54.048Z,-2.67
2019-02-25T03:24:24.921Z,-2.69
2019-02-25T03:26:55.770Z,-2.71
2019-02-25T03:29:26.633Z,-2.73
2019-02-25T03:31:57.498Z,-2.74
2019-02-25T03:34:28.372Z,-2.77
2019-02-25T03:36:59.234Z,-2.76
2019-02-25T03:39:30.104Z,-2.73
2019-02-25T03:42:01.030Z,-2.62
2019-02-25T03:44:31.896Z,-2.57
2019-02-25T03:47:02.796Z,-2.58
2019-02-25T03:49:33.680Z,-2.59
2019-02-25T03:52:04.608Z,-2.70
2019-02-25T03:54:35.495Z,-2.77
2019-02-25T03:57:06.364Z,-2.86
2019-02-25T03:59:37.403Z,-2.96
2019-02-25T04:02:08.423Z,-3.00
2019-02-25T04:04:39.409Z,-3.03
2019-02-25T04:07:10.371Z,-3.08
2019-02-25T04:09:41.221Z,-3.11
2019-02-25T04:12:12.079Z,-3.14
2019-02-25T04:14:42.922Z,-3.14
2019-02-25T04:17:13.775Z,-3.18
2019-02-25T04:19:44.630Z,-3.23
2019-02-25T04:22:15.573Z,-3.23
2019-02-25T04:24:46.440Z,-3.25
2019-02-25T04:27:17.287Z,-3.24
2019-02-25T04:29:48.157Z,-3.20
2019-02-25T04:32:19.022Z,-3.17
2019-02-25T04:34:49.885Z,-3.16
2019-02-25T04:37:20.733Z,-3.16
2019-02-25T04:39:51.579Z,-3.17
2019-02-25T04:42:22.591Z,-3.19
2019-02-25T04:44:53.451Z,-3.17
2019-02-25T04:47:24.316Z,-3.15
2019-02-25T04:49:55.236Z,-3.16
2019-02-25T04:52:26.127Z,-3.16
2019-02-25T04:54:56.979Z,-3.18
2019-02-25T04:57:28.176Z,-3.21
2019-02-25T04:59:59.205Z,-3.20
2019-02-25T05:02:30.067Z,-3.18
2019-02-25T05:05:00.931Z,-3.17
2019-02-25T05:07:31.801Z,-3.17
2019-02-25T05:10:02.735Z,-3.24
2019-02-25T05:12:33.606Z,-3.24
2019-02-25T05:15:05.533Z,-3.17
2019-02-25T05:17:36.378Z,-3.18
2019-02-25T05:20:08.270Z,-3.14
2019-02-25T05:22:39.250Z,-3.09
2019-02-25T05:25:11.883Z,-3.02
2019-02-25T05:27:42.743Z,-3.04
2019-02-25T05:30:17.385Z,-3.00
2019-02-25T05:32:48.246Z,-3.03
2019-02-25T05:35:19.126Z,-3.06
2019-02-25T05:37:49.998Z,-3.11
2019-02-25T05:40:21.327Z,-3.17
2019-02-25T05:42:52.235Z,-3.18
2019-02-25T05:45:23.222Z,-3.12
2019-02-25T05:47:55.299Z,-3.14
2019-02-25T05:50:26.131Z,-3.16
2019-02-25T05:52:57.019Z,-3.20
2019-02-25T05:55:27.925Z,-3.18
2019-02-25T05:57:58.763Z,-3.19
2019-02-25T06:00:33.564Z,-3.16
2019-02-25T06:03:04.438Z,-3.15
2019-02-25T06:05:35.329Z,-3.22
2019-02-25T06:08:06.349Z,-3.28
2019-02-25T06:10:38.655Z,-3.29
2019-02-25T06:13:09.519Z,-3.32
2019-02-25T06:15:40.361Z,-3.34
2019-02-25T06:18:11.252Z,-3.26
2019-02-25T06:20:42.309Z,-3.20
2019-02-25T06:23:13.206Z,-3.20
2019-02-25T06:25:44.345Z,-3.24
2019-02-25T06:28:15.237Z,-3.18
2019-02-25T06:30:46.173Z,-2.98
2019-02-25T06:33:17.111Z,-2.81
2019-02-25T06:35:47.972Z,-2.79
2019-02-25T06:38:18.827Z,-2.75
2019-02-25T06:40:49.711Z,-2.68
2019-02-25T06:43:20.583Z,-2.53
2019-02-25T06:45:51.459Z,-2.39
2019-02-25T06:48:22.310Z,-2.23
2019-02-25T06:50:53.198Z,-2.04
2019-02-25T06:53:24.059Z,-1.77
2019-02-25T06:55:54.933Z,-1.52
2019-02-25T06:58:25.886Z,-1.29
2019-02-25T07:00:56.767Z,-1.04
2019-02-25T07:03:27.608Z,-0.77
2019-02-25T07:06:02.935Z,-0.49
2019-02-25T07:08:35.434Z,-0.16
2019-02-25T07:11:10.915Z,0.09
2019-02-25T07:13:43.413Z,0.27
2019-02-25T07:16:21.973Z,0.36
2019-02-25T07:19:10.438Z,0.57
2019-02-25T07:21:45.622Z,0.64
2019-02-25T07:24:23.837Z,0.59
2019-02-25T07:27:04.766Z,0.78
2019-02-25T07:29:52.251Z,0.98
2019-02-25T07:32:27.680Z,1.01
2019-02-25T07:35:00.598Z,1.01
2019-02-25T07:37:44.836Z,1.22
2019-02-25T07:40:33.104Z,1.32
2019-02-25T07:43:11.010Z,1.70
2019-02-25T07:45:49.516Z,2.15
2019-02-25T07:48:22.004Z,2.08
2019-02-25T07:51:03.464Z,2.14
2019-02-25T07:53:47.852Z,2.56
2019-02-25T07:56:23.010Z,2.88
2019-02-25T07:58:55.530Z,3.45
2019-02-25T08:01:28.041Z,3.54
2019-02-25T08:04:15.412Z,3.97
2019-02-25T08:06:47.920Z,4.47
2019-02-25T08:09:26.406Z,4.84
2019-02-25T08:12:10.814Z,4.69
2019-02-25T08:14:43.330Z,4.65
2019-02-25T08:17:32.004Z,4.70
2019-02-25T08:20:06.926Z,5.10
2019-02-25T08:22:48.376Z,5.62
2019-02-25T08:25:23.346Z,5.63
2019-02-25T08:28:01.498Z,5.86
2019-02-25T08:30:36.968Z,5.95
2019-02-25T08:33:21.036Z,6.04
2019-02-25T08:36:11.522Z,5.78
2019-02-25T08:38:49.443Z,5.63
2019-02-25T08:41:24.580Z,6.10
2019-02-25T08:44:00.014Z,6.33
2019-02-25T08:46:41.576Z,6.88
2019-02-25T08:49:14.210Z,7.38
2019-02-25T08:51:45.158Z,8.11
2019-02-25T08:54:16.152Z,8.66
2019-02-25T08:56:47.016Z,9.00
2019-02-25T08:59:17.942Z,9.45
2019-02-25T09:01:48.800Z,9.61
2019-02-25T09:04:19.644Z,9.90
2019-02-25T09:06:50.509Z,10.43
2019-02-25T09:09:21.728Z,11.02
2019-02-25T09:11:52.708Z,11.45
2019-02-25T09:14:23.653Z,11.98
2019-02-25T09:16:54.536Z,11.57
2019-02-25T09:19:25.444Z,11.63
2019-02-25T09:21:56.431Z,11.98
2019-02-25T09:24:27.305Z,12.12
2019-02-25T09:26:58.156Z,12.27
2019-02-25T09:29:29.037Z,12.61
2019-02-25T09:31:59.906Z,13.21
2019-02-25T09:34:30.809Z,13.28
2019-02-25T09:37:01.671Z,13.33
2019-02-25T09:39:32.525Z,13.63
2019-02-25T09:42:03.377Z,14.19
2019-02-25T09:44:34.235Z,14.61
2019-02-25T09:47:05.289Z,14.98
2019-02-25T09:49:36.087Z,15.45
2019-02-25T09:52:06.933Z,15.31
2019-02-25T09:54:37.821Z,14.86
2019-02-25T09:57:08.679Z,15.34
2019-02-25T09:59:39.569Z,15.09
2019-02-25T10:02:10.457Z,15.22
2019-02-25T10:04:41.335Z,15.64
2019-02-25T10:07:12.265Z,15.90
2019-02-25T10:09:43.215Z,16.13
2019-02-25T10:12:14.107Z,16.52
2019-02-25T10:14:44.985Z,16.61
2019-02-25T10:17:23.561Z,17.14
2019-02-25T10:19:48.420Z,17.53
2019-02-25T10:22:19.285Z,17.91
2019-02-25T10:24:50.161Z,18.07
2019-02-25T10:27:21.001Z,18.19
2019-02-25T10:29:51.863Z,18.25
2019-02-25T10:32:23.647Z,18.85
2019-02-25T10:34:55.288Z,19.04
2019-02-25T10:37:26.159Z,18.99
2019-02-25T10:39:57.022Z,18.91
2019-02-25T10:42:29.505Z,19.00
2019-02-25T10:45:02.550Z,19.42
2019-02-25T10:47:33.179Z,19.81
2019-02-25T10:50:05.751Z,20.51
2019-02-25T10:52:38.765Z,20.50
2019-02-25T10:55:24.919Z,19.77
2019-02-25T10:57:57.593Z,19.80
2019-02-25T11:00:28.752Z,20.29
2019-02-25T11:02:59.597Z,20.42
2019-02-25T11:05:30.749Z,20.45
2019-02-25T11:08:05.196Z,20.81
2019-02-25T11:10:40.211Z,20.81
2019-02-25T11:13:11.133Z,21.19
2019-02-25T11:15:44.008Z,20.55
2019-02-25T11:18:14.536Z,21.60
2019-02-25T11:20:45.403Z,21.96
2019-02-25T11:23:17.600Z,22.11
2019-02-25T11:25:48.851Z,22.43
2019-02-25T11:28:25.453Z,22.60
2019-02-25T11:30:53.811Z,23.11
2019-02-25T11:33:27.106Z,23.13
2019-02-25T11:35:57.414Z,23.50
2019-02-25T11:38:30.343Z,23.83
2019-02-25T11:41:02.025Z,23.75
2019-02-25T11:43:33.395Z,22.45
2019-02-25T11:46:04.333Z,21.45
2019-02-25T11:48:35.224Z,21.89
2019-02-25T11:51:06.147Z,22.78
2019-02-25T11:53:37.011Z,21.30
2019-02-25T11:56:07.971Z,20.56
2019-02-25T11:58:38.825Z,21.24
2019-02-25T12:01:09.827Z,21.74
2019-02-25T12:03:40.672Z,22.43
2019-02-25T12:06:11.549Z,22.63
2019-02-25T12:08:42.410Z,23.56
2019-02-25T12:11:13.312Z,23.73
2019-02-25T12:13:44.168Z,23.77
2019-02-25T12:16:15.127Z,23.71
2019-02-25T12:18:45.997Z,22.86
2019-02-25T12:21:16.863Z,22.77
2019-02-25T12:23:47.726Z,23.89
2019-02-25T12:26:18.669Z,24.08
2019-02-25T12:28:49.584Z,24.12
2019-02-25T12:31:20.442Z,24.58
2019-02-25T12:33:51.444Z,24.67
2019-02-25T12:36:22.292Z,23.70
2019-02-25T12:38:53.208Z,24.24
2019-02-25T12:41:24.114Z,24.60
2019-02-25T12:43:55.080Z,24.04
2019-02-25T12:46:25.894Z,23.33
2019-02-25T12:48:56.868Z,24.82
2019-02-25T12:51:27.720Z,25.75
2019-02-25T12:53:58.691Z,26.58
2019-02-25T12:56:29.618Z,26.58
2019-02-25T12:59:00.606Z,24.87
2019-02-25T13:01:31.473Z,24.86
2019-02-25T13:04:02.408Z,25.45
2019-02-25T13:06:33.364Z,26.29
2019-02-25T13:09:06.857Z,26.42
2019-02-25T13:11:39.874Z,25.80
2019-02-25T13:14:10.701Z,25.72
2019-02-25T13:16:41.634Z,25.72
2019-02-25T13:19:12.546Z,25.70
2019-02-25T13:21:43.484Z,25.66
2019-02-25T13:24:14.405Z,25.66
2019-02-25T13:26:45.351Z,24.48
2019-02-25T13:29:16.271Z,25.18
2019-02-25T13:31:47.220Z,25.45
2019-02-25T13:34:18.232Z,25.39
2019-02-25T13:36:49.160Z,25.77
2019-02-25T13:39:20.150Z,25.15
2019-02-25T13:41:51.119Z,25.08
2019-02-25T13:44:22.064Z,25.55
2019-02-25T13:46:53.082Z,23.75
2019-02-25T13:49:23.985Z,23.75
2019-02-25T13:51:54.838Z,23.73
2019-02-25T13:54:25.763Z,23.55
2019-02-25T13:56:56.776Z,23.31
2019-02-25T13:59:27.984Z,23.62
2019-02-25T14:01:58.852Z,23.58
2019-02-25T14:04:29.778Z,24.66
2019-02-25T14:07:00.624Z,25.04
2019-02-25T14:09:31.546Z,25.61
2019-02-25T14:12:02.551Z,25.61
2019-02-25T14:14:33.436Z,25.70
2019-02-25T14:17:04.273Z,25.70
2019-02-25T14:19:35.330Z,25.61
2019-02-25T14:22:06.436Z,25.46
2019-02-25T14:24:38.546Z,25.79
2019-02-25T14:27:11.762Z,25.75
2019-02-25T14:29:44.682Z,25.75
2019-02-25T14:32:15.616Z,25.54
2019-02-25T14:34:46.544Z,24.72
2019-02-25T14:37:19.491Z,24.12
2019-02-25T14:39:53.732Z,23.40
2019-02-25T14:42:25.672Z,22.53
2019-02-25T14:44:56.299Z,22.71
2019-02-25T14:47:34.789Z,23.09
2019-02-25T14:50:00.998Z,22.81
2019-02-25T14:52:31.934Z,21.94
2019-02-25T14:55:04.911Z,20.72
2019-02-25T14:57:35.750Z,19.58
2019-02-25T15:00:15.308Z,18.77
2019-02-25T15:02:48.028Z,18.08
2019-02-25T15:05:19.848Z,17.94
2019-02-25T15:07:53.243Z,18.32
2019-02-25T15:10:29.034Z,18.81
2019-02-25T15:12:59.214Z,19.40
2019-02-25T15:15:29.597Z,19.80
2019-02-25T15:18:00.860Z,19.86
2019-02-25T15:20:31.789Z,19.54
2019-02-25T15:23:02.798Z,19.66
2019-02-25T15:25:35.857Z,19.72
2019-02-25T15:28:09.257Z,19.72
2019-02-25T15:30:38.812Z,20.11
2019-02-25T15:33:09.997Z,20.58
2019-02-25T15:35:41.678Z,20.58
2019-02-25T15:38:13.703Z,20.59
2019-02-25T15:40:44.655Z,20.67
2019-02-25T15:43:18.105Z,20.61
2019-02-25T15:45:48.477Z,20.39
2019-02-25T15:48:21.567Z,19.97
2019-02-25T15:50:55.498Z,19.47
2019-02-25T15:53:27.341Z,19.35
2019-02-25T15:56:01.034Z,19.06
2019-02-25T15:58:30.855Z,18.93
2019-02-25T16:01:01.789Z,18.83
2019-02-25T16:03:35.140Z,19.05
2019-02-25T16:06:08.348Z,18.92
2019-02-25T16:08:39.539Z,18.41
2019-02-25T16:11:12.030Z,17.96
2019-02-25T16:13:43.224Z,17.29
2019-02-25T16:16:14.735Z,16.62
2019-02-25T16:18:45.651Z,16.17
2019-02-25T16:21:16.561Z,15.85
2019-02-25T16:23:47.457Z,15.43
2019-02-25T16:26:20.051Z,15.04
2019-02-25T16:28:53.204Z,14.71
2019-02-25T16:31:24.099Z,14.40
2019-02-25T16:33:55.499Z,14.09
2019-02-25T16:36:28.298Z,13.80
2019-02-25T16:39:01.761Z,13.54
2019-02-25T16:41:36.225Z,13.31
2019-02-25T16:44:06.819Z,13.05
2019-02-25T16:46:39.404Z,12.84
2019-02-25T16:49:10.557Z,12.61
2019-02-25T16:51:41.451Z,12.43
2019-02-25T16:54:13.576Z,12.19
2019-02-25T16:56:45.097Z,11.97
2019-02-25T16:59:17.850Z,11.80
2019-02-25T17:01:48.512Z,11.62
2019-02-25T17:04:22.644Z,11.49
2019-02-25T17:06:53.543Z,11.40
2019-02-25T17:09:25.306Z,11.31
2019-02-25T17:11:57.953Z,11.22
2019-02-25T17:14:28.682Z,11.01
2019-02-25T17:16:59.561Z,10.80
2019-02-25T17:19:30.550Z,10.58
2019-02-25T17:22:02.457Z,10.40
2019-02-25T17:24:34.893Z,10.25
2019-02-25T17:27:08.962Z,10.13
2019-02-25T17:29:39.735Z,10.10
2019-02-25T17:32:11.184Z,10.13
2019-02-25T17:34:43.737Z,10.07
2019-02-25T17:37:15.413Z,10.01
2019-02-25T17:39:47.393Z,9.94
2019-02-25T17:42:19.742Z,9.91
2019-02-25T17:44:53.310Z,9.81
2019-02-25T17:47:24.413Z,9.72
2019-02-25T17:49:56.055Z,9.60
2019-02-25T17:52:28.173Z,9.46
2019-02-25T17:54:59.042Z,9.33
2019-02-25T17:57:32.245Z,9.26
2019-02-25T18:00:03.232Z,9.04
2019-02-25T18:02:35.618Z,8.85
2019-02-25T18:05:09.410Z,8.71
2019-02-25T18:07:42.024Z,8.62
2019-02-25T18:10:14.068Z,8.57
2019-02-25T18:12:45.003Z,8.52
2019-02-25T18:15:30.555Z,8.38
2019-02-25T18:18:02.504Z,8.22
2019-02-25T18:20:33.478Z,8.05
2019-02-25T18:23:05.445Z,7.89
2019-02-25T18:25:37.766Z,7.74
2019-02-25T18:28:10.836Z,7.67
2019-02-25T18:30:41.826Z,7.56
2019-02-25T18:33:12.986Z,7.41
2019-02-25T18:35:45.630Z,7.36
2019-02-25T18:38:16.533Z,7.25
2019-02-25T18:40:47.442Z,7.16
2019-02-25T18:43:20.063Z,7.08
2019-02-25T18:45:51.077Z,7.00
2019-02-25T18:48:23.275Z,6.93
2019-02-25T18:50:57.175Z,6.84
2019-02-25T18:53:27.463Z,6.74
2019-02-25T18:55:58.468Z,6.72
2019-02-25T18:58:31.095Z,6.69
2019-02-25T19:01:02.250Z,6.65
2019-02-25T19:03:35.254Z,6.54
2019-02-25T19:06:05.852Z,6.41
2019-02-25T19:08:36.879Z,6.29
2019-02-25T19:11:07.827Z,6.26
2019-02-25T19:13:38.764Z,6.21
2019-02-25T19:16:10.043Z,6.07
2019-02-25T19:18:42.942Z,5.96
2019-02-25T19:21:13.875Z,5.83
2019-02-25T19:23:46.436Z,5.69
2019-02-25T19:26:19.550Z,5.66
2019-02-25T19:28:52.091Z,5.60
2019-02-25T19:31:23.917Z,5.48
2019-02-25T19:33:55.330Z,5.36
2019-02-25T19:36:29.423Z,5.32
2019-02-25T19:38:58.797Z,5.29
2019-02-25T19:41:29.982Z,5.19
2019-02-25T19:44:01.971Z,5.06
2019-02-25T19:46:33.416Z,4.98
2019-02-25T19:49:04.414Z,4.87
2019-02-25T19:51:35.365Z,4.82
2019-02-25T19:54:06.988Z,4.78
2019-02-25T19:56:38.897Z,4.72
2019-02-25T19:59:09.999Z,4.72
2019-02-25T20:01:40.849Z,4.68
2019-02-25T20:04:13.977Z,4.57
2019-02-25T20:06:44.830Z,4.47
2019-02-25T20:09:18.128Z,4.43
2019-02-25T20:11:48.980Z,4.36
2019-02-25T20:14:19.903Z,4.29
2019-02-25T20:16:50.769Z,4.32
2019-02-25T20:19:21.601Z,4.27
2019-02-25T20:21:53.076Z,4.24
2019-02-25T20:24:25.634Z,4.14
2019-02-25T20:26:59.709Z,4.07
2019-02-25T20:29:29.467Z,4.04
2019-02-25T20:32:00.446Z,4.01
2019-02-25T20:34:32.089Z,3.97
2019-02-25T20:37:03.973Z,3.89
2019-02-25T20:39:35.999Z,3.76
2019-02-25T20:42:07.434Z,3.71
2019-02-25T20:44:38.385Z,3.67
2019-02-25T20:47:09.231Z,3.62
2019-02-25T20:49:40.079Z,3.64
2019-02-25T20:52:11.774Z,3.59
2019-02-25T20:54:45.414Z,3.54
2019-02-25T20:57:16.929Z,3.49
2019-02-25T20:59:49.287Z,3.40
2019-02-25T21:02:21.643Z,3.30
2019-02-25T21:04:53.688Z,3.08
2019-02-25T21:07:25.127Z,2.91
2019-02-25T21:09:58.636Z,2.84
2019-02-25T21:12:29.355Z,2.79
2019-02-25T21:15:00.384Z,2.82
2019-02-25T21:17:33.034Z,2.94
2019-02-25T21:20:07.089Z,2.99
2019-02-25T21:22:38.570Z,2.93
2019-02-25T21:25:11.560Z,2.90
2019-02-25T21:27:42.424Z,2.90
2019-02-25T21:30:15.968Z,2.81
2019-02-25T21:32:49.278Z,2.77
2019-02-25T21:35:23.503Z,2.80
2019-02-25T21:37:54.657Z,2.78
2019-02-25T21:40:27.820Z,2.73
2019-02-25T21:42:58.389Z,2.73
2019-02-25T21:45:32.084Z,2.71
2019-02-25T21:48:04.687Z,2.73
2019-02-25T21:50:36.028Z,2.67
2019-02-25T21:53:07.587Z,2.58
2019-02-25T21:55:39.414Z,2.54
2019-02-25T21:58:10.278Z,2.49
2019-02-25T22:00:41.112Z,2.41
2019-02-25T22:03:13.195Z,2.39
2019-02-25T22:05:44.613Z,2.37
2019-02-25T22:08:15.458Z,2.35
2019-02-25T22:10:46.332Z,2.24
2019-02-25T22:13:18.410Z,2.16
2019-02-25T22:15:49.776Z,2.17
2019-02-25T22:18:20.626Z,2.11
2019-02-25T22:20:51.595Z,2.06
2019-02-25T22:23:25.828Z,2.02
2019-02-25T22:25:54.951Z,2.06
2019-02-25T22:28:25.805Z,1.99
2019-02-25T22:30:56.669Z,1.90
2019-02-25T22:33:28.097Z,1.86
2019-02-25T22:36:00.058Z,1.86
2019-02-25T22:38:30.912Z,1.87
2019-02-25T22:41:02.286Z,1.81
2019-02-25T22:43:33.174Z,1.68
2019-02-25T22:46:05.427Z,1.57
2019-02-25T22:48:37.660Z,1.47
2019-02-25T22:51:09.180Z,1.43
2019-02-25T22:53:40.048Z,1.35
2019-02-25T22:56:13.345Z,1.28
2019-02-25T22:58:43.438Z,1.22
2019-02-25T23:01:17.468Z,1.19
2019-02-25T23:03:47.994Z,1.13
2019-02-25T23:06:21.362Z,1.09
2019-02-25T23:08:53.389Z,1.08
2019-02-25T23:11:26.462Z,1.07
2019-02-25T23:13:57.389Z,1.12
2019-02-25T23:16:28.307Z,1.13
2019-02-25T23:18:59.212Z,1.06
2019-02-25T23:21:31.447Z,1.04
2019-02-25T23:24:03.052Z,0.94
2019-02-25T23:26:35.168Z,0.96
2019-02-25T23:29:06.033Z,0.89
2019-02-25T23:31:36.887Z,0.97
2019-02-25T23:34:10.128Z,0.92
2019-02-25T23:36:43.025Z,0.97
2019-02-25T23:39:12.935Z,0.96
2019-02-25T23:41:44.384Z,0.92
2019-02-25T23:44:17.452Z,0.95
2019-02-25T23:46:48.897Z,0.84
2019-02-25T23:49:27.047Z,0.75
2019-02-25T23:51:52.303Z,0.71
2019-02-25T23:54:25.334Z,0.69
2019-02-25T23:56:57.902Z,0.65
2019-02-25T23:59:28.243Z,0.55
